| time (UTC) | temp F | wind direction | speed knots | gust knots | rain 1hr in | rain 24hr in | rain mn in | humidity % | barometer mb |
| 20260506165253 | 52 | 8 | 0.9 | 3.5 | 0.00 | 0.00 | 0.00 | 96 | 1037.7 |
| 20260506164750 | 52 | 355 | 1.7 | 6.1 | 0.00 | 0.00 | 0.00 | 95 | 1037.6 |
| 20260506164247 | 52 | 31 | 0.0 | 0.0 | 0.00 | 0.00 | 0.00 | 95 | 1037.7 |
| 20260506163744 | 52 | 4 | 1.7 | 1.7 | 0.00 | 0.00 | 0.00 | 96 | 1037.8 |
| 20260506163238 | 52 | 7 | 0.9 | 3.5 | 0.00 | 0.00 | 0.00 | 96 | 1037.7 |
| 20260506162735 | 52 | 349 | 0.0 | 3.5 | 0.00 | 0.00 | 0.00 | 96 | 1037.7 |
| 20260506162233 | 52 | 346 | 3.5 | 6.1 | 0.00 | 0.00 | 0.00 | 96 | 1037.6 |
| 20260506161730 | 52 | 3 | 2.6 | 5.2 | 0.00 | 0.00 | 0.00 | 96 | 1037.7 |
| 20260506161226 | 52 | 15 | 1.7 | 7.0 | 0.00 | 0.00 | 0.00 | 96 | 1037.8 |
| 20260506160724 | 52 | 8 | 2.6 | 3.5 | 0.00 | 0.00 | 0.00 | 95 | 1038.1 |
| 20260506160220 | 52 | 7 | 2.6 | 5.2 | 0.00 | 0.00 | 0.00 | 95 | 1037.8 |
| 20260506155719 | 52 | 341 | 0.9 | 2.6 | 0.00 | 0.00 | 0.00 | 95 | 1037.7 |
| 20260506155215 | 53 | 12 | 2.6 | 5.2 | 0.00 | 0.00 | 0.00 | 95 | 1037.5 |
| 20260506153317 | 53 | 358 | 0.0 | 0.0 | 0.00 | 0.00 | 0.00 | 95 | 1037.4 |
| 20260506152814 | 53 | 35 | 0.0 | 0.0 | 0.00 | 0.00 | 0.00 | 95 | 1037.2 |
| 20260506152311 | 53 | 16 | 0.0 | 0.0 | 0.00 | 0.00 | 0.00 | 95 | 1037.0 |
| 20260506151810 | 53 | 16 | 0.0 | 0.0 | 0.00 | 0.00 | 0.00 | 96 | 1037.0 |
| 20260506151306 | 52 | 15 | 0.0 | 0.0 | 0.00 | 0.00 | 0.00 | 96 | 1036.9 |
| 20260506150803 | 52 | 16 | 0.0 | 0.0 | 0.00 | 0.00 | 0.00 | 97 | 1036.8 |
| 20260506150304 | 52 | 16 | 0.0 | 0.0 | 0.00 | 0.00 | 0.00 | 97 | 1037.0 |
| 20260506145757 | 52 | 349 | 0.0 | 0.0 | 0.00 | 0.00 | 0.00 | 97 | 1037.0 |
| 20260506145253 | 51 | 349 | 0.0 | 0.0 | 0.00 | 0.00 | 0.00 | 97 | 1036.8 |
| 20260506144751 | 51 | 348 | 0.0 | 0.0 | 0.00 | 0.00 | 0.00 | 97 | 1036.6 |
| 20260506144248 | 51 | 346 | 0.0 | 0.0 | 0.00 | 0.00 | 0.00 | 98 | 1036.7 |
| 20260506143745 | 51 | 355 | 1.7 | 1.7 | 0.00 | 0.00 | 0.00 | 97 | 1037.0 |
| 20260506143243 | 51 | 0 | 0.9 | 1.7 | 0.00 | 0.00 | 0.00 | 97 | 1036.9 |
| 20260506142741 | 51 | 26 | 0.0 | 0.0 | 0.00 | 0.00 | 0.00 | 97 | 1036.9 |
| 20260506142239 | 51 | 26 | 0.0 | 0.0 | 0.00 | 0.00 | 0.00 | 98 | 1036.9 |
| 20260506141736 | 51 | 26 | 0.0 | 0.0 | 0.00 | 0.00 | 0.00 | 98 | 1036.6 |
| 20260506141235 | 50 | 16 | 0.0 | 0.0 | 0.00 | 0.00 | 0.00 | 97 | 1036.9 |
| 20260506140732 | 51 | 337 | 0.0 | 0.9 | 0.00 | 0.00 | 0.00 | 97 | 1036.9 |
| 20260506140229 | 51 | 336 | 0.9 | 2.6 | 0.00 | 0.00 | 0.00 | 96 | 1036.7 |
| 20260506135725 | 51 | 318 | 0.0 | 0.9 | 0.00 | 0.00 | 0.00 | 97 | 1036.6 |
| 20260506135222 | 51 | 198 | 1.7 | 3.5 | 0.00 | 0.00 | 0.00 | 97 | 1036.9 |
| 20260506134719 | 51 | 213 | 0.0 | 0.0 | 0.00 | 0.00 | 0.00 | 98 | 1036.4 |
| 20260506134215 | 50 | 209 | 3.5 | 3.5 | 0.00 | 0.00 | 0.00 | 99 | 1036.2 |
| 20260506133712 | 50 | 153 | 2.6 | 6.1 | 0.00 | 0.00 | 0.00 | 99 | 1036.3 |
| 20260506133209 | 50 | 136 | 1.7 | 5.2 | 0.00 | 0.00 | 0.00 | 99 | 1036.4 |
| 20260506132706 | 49 | 214 | 0.0 | 3.5 | 0.00 | 0.00 | 0.00 | 99 | 1036.0 |
| 20260506132203 | 49 | 146 | 0.0 | 0.9 | 0.00 | 0.00 | 0.00 | 99 | 1036.3 |
| 20260506131701 | 48 | 100 | 0.0 | 0.0 | 0.00 | 0.00 | 0.00 | 99 | 1036.4 |
| 20260506131156 | 48 | 158 | 0.0 | 0.0 | 0.00 | 0.00 | 0.00 | 99 | 1036.3 |
| 20260506130653 | 47 | 32 | 0.0 | 0.0 | 0.00 | 0.00 | 0.00 | 99 | 1036.5 |
| 20260506130151 | 47 | 92 | 0.0 | 0.0 | 0.00 | 0.00 | 0.00 | 99 | 1036.5 |
| 20260506125649 | 47 | 92 | 0.0 | 0.0 | 0.00 | 0.00 | 0.00 | 99 | 1036.2 |
| 20260506125146 | 47 | 92 | 0.0 | 0.0 | 0.00 | 0.00 | 0.00 | 99 | 1036.3 |
| 20260506124644 | 47 | 30 | 0.0 | 0.0 | 0.00 | 0.00 | 0.00 | 99 | 1036.4 |
| 20260506124142 | 46 | 33 | 0.0 | 0.0 | 0.00 | 0.00 | 0.00 | 99 | 1036.6 |
| 20260506123640 | 46 | 32 | 0.0 | 0.0 | 0.00 | 0.00 | 0.00 | 99 | 1036.2 |
| 20260506123138 | 46 | 32 | 0.0 | 0.0 | 0.00 | 0.00 | 0.00 | 99 | 1036.4 |
| 20260506122634 | 47 | 32 | 0.0 | 0.0 | 0.00 | 0.00 | 0.00 | 99 | 1036.1 |
| 20260506122132 | 47 | 115 | 0.0 | 0.0 | 0.00 | 0.00 | 0.00 | 99 | 1036.3 |
| 20260506121629 | 47 | 187 | 0.0 | 0.0 | 0.00 | 0.00 | 0.00 | 99 | 1035.9 |
| 20260506121125 | 46 | 350 | 1.7 | 1.7 | 0.00 | 0.00 | 0.00 | 99 | 1036.1 |
| 20260506120624 | 46 | 5 | 0.0 | 0.0 | 0.00 | 0.00 | 0.00 | 99 | 1036.2 |
| 20260506120121 | 46 | 5 | 0.0 | 0.0 | 0.00 | 0.00 | 0.00 | 99 | 1036.0 |
| 20260506115619 | 47 | 5 | 0.0 | 0.0 | 0.00 | 0.00 | 0.00 | 99 | 1036.0 |
| 20260506115117 | 46 | 5 | 0.0 | 0.0 | 0.00 | 0.00 | 0.00 | 99 | 1036.0 |
| 20260506114614 | 46 | 5 | 0.0 | 0.0 | 0.00 | 0.00 | 0.00 | 99 | 1036.0 |
| 20260506114112 | 46 | 5 | 0.0 | 0.0 | 0.00 | 0.00 | 0.00 | 99 | 1036.0 |
| 20260506113610 | 46 | 5 | 0.0 | 0.0 | 0.00 | 0.00 | 0.00 | 99 | 1035.9 |
| 20260506113107 | 46 | 5 | 0.0 | 0.0 | 0.00 | 0.00 | 0.00 | 99 | 1036.0 |
| 20260506112603 | 46 | 5 | 0.0 | 0.0 | 0.00 | 0.00 | 0.00 | 99 | 1035.9 |
| 20260506112101 | 46 | 5 | 0.0 | 0.0 | 0.00 | 0.00 | 0.00 | 99 | 1036.0 |
| 20260506111558 | 46 | 5 | 0.0 | 0.0 | 0.00 | 0.00 | 0.00 | 99 | 1036.0 |
| 20260506111055 | 46 | 5 | 0.0 | 0.0 | 0.00 | 0.00 | 0.00 | 99 | 1036.0 |
| 20260506110553 | 46 | 5 | 0.0 | 0.0 | 0.00 | 0.00 | 0.00 | 99 | 1035.7 |
| 20260506110050 | 46 | 5 | 0.0 | 0.0 | 0.00 | 0.00 | 0.00 | 99 | 1035.6 |
| 20260506105546 | 46 | 5 | 0.0 | 0.0 | 0.00 | 0.00 | 0.00 | 99 | 1035.5 |
| 20260506105044 | 46 | 5 | 0.0 | 0.0 | 0.00 | 0.00 | 0.00 | 99 | 1035.3 |
| 20260506104542 | 46 | 5 | 0.0 | 0.0 | 0.00 | 0.00 | 0.00 | 99 | 1035.3 |
| 20260506104039 | 47 | 5 | 0.0 | 0.0 | 0.00 | 0.00 | 0.00 | 99 | 1035.5 |
| 20260506103536 | 47 | 5 | 0.0 | 0.0 | 0.00 | 0.00 | 0.00 | 99 | 1035.3 |
| 20260506103033 | 47 | 5 | 0.0 | 0.0 | 0.00 | 0.00 | 0.00 | 99 | 1035.0 |
| 20260506102531 | 47 | 11 | 0.0 | 0.0 | 0.00 | 0.00 | 0.00 | 99 | 1035.1 |
| 20260506102028 | 47 | 116 | 0.0 | 0.0 | 0.00 | 0.00 | 0.00 | 99 | 1034.9 |
| 20260506101525 | 47 | 32 | 0.0 | 0.0 | 0.00 | 0.00 | 0.00 | 99 | 1034.9 |
| 20260506101022 | 47 | 47 | 0.0 | 0.0 | 0.00 | 0.00 | 0.00 | 99 | 1034.9 |
| 20260506100520 | 47 | 47 | 0.0 | 0.0 | 0.00 | 0.00 | 0.00 | 99 | 1035.2 |
| 20260506100018 | 47 | 47 | 0.0 | 0.0 | 0.00 | 0.00 | 0.00 | 99 | 1035.1 |
| 20260506095517 | 47 | 47 | 0.0 | 0.0 | 0.00 | 0.00 | 0.00 | 99 | 1035.0 |
| 20260506095012 | 47 | 47 | 0.0 | 0.0 | 0.00 | 0.00 | 0.00 | 99 | 1035.0 |
| 20260506094511 | 48 | 47 | 0.0 | 0.0 | 0.00 | 0.00 | 0.00 | 99 | 1034.9 |
| 20260506094008 | 48 | 47 | 0.0 | 0.0 | 0.00 | 0.00 | 0.00 | 99 | 1034.9 |
| 20260506093506 | 48 | 47 | 0.0 | 0.0 | 0.00 | 0.00 | 0.00 | 99 | 1034.9 |
| 20260506093004 | 48 | 47 | 0.0 | 0.0 | 0.00 | 0.00 | 0.00 | 99 | 1034.9 |
| 20260506092501 | 48 | 47 | 0.0 | 0.0 | 0.00 | 0.00 | 0.00 | 99 | 1034.7 |
| 20260506091957 | 48 | 48 | 0.0 | 0.0 | 0.00 | 0.00 | 0.00 | 98 | 1034.8 |
| 20260506091456 | 48 | 49 | 0.0 | 0.0 | 0.00 | 0.00 | 0.00 | 98 | 1034.9 |
| 20260506090953 | 48 | 49 | 0.0 | 0.0 | 0.00 | 0.00 | 0.00 | 98 | 1034.7 |
| 20260506090451 | 48 | 66 | 0.0 | 0.0 | 0.00 | 0.00 | 0.00 | 98 | 1034.9 |
| 20260506085946 | 49 | 65 | 0.0 | 0.0 | 0.00 | 0.00 | 0.00 | 98 | 1034.8 |
| 20260506085444 | 49 | 86 | 0.0 | 0.0 | 0.00 | 0.00 | 0.00 | 98 | 1034.9 |
| 20260506084940 | 50 | 86 | 0.0 | 0.0 | 0.00 | 0.00 | 0.00 | 98 | 1034.6 |
| 20260506084437 | 50 | 16 | 0.0 | 0.0 | 0.00 | 0.00 | 0.00 | 98 | 1034.7 |
| 20260506083933 | 50 | 37 | 0.0 | 0.0 | 0.00 | 0.00 | 0.00 | 98 | 1034.7 |
| 20260506083430 | 50 | 0 | 0.0 | 0.9 | 0.00 | 0.00 | 0.00 | 98 | 1034.5 |
| 20260506082928 | 50 | 13 | 0.0 | 0.0 | 0.00 | 0.00 | 0.00 | 97 | 1034.5 |
| 20260506082425 | 50 | 13 | 0.0 | 0.9 | 0.00 | 0.00 | 0.00 | 97 | 1034.5 |
| 20260506081920 | 51 | 25 | 0.0 | 0.0 | 0.00 | 0.00 | 0.00 | 97 | 1034.6 |
| 20260506081419 | 51 | 26 | 0.0 | 0.0 | 0.00 | 0.00 | 0.00 | 97 | 1034.5 |
| 20260506080916 | 51 | 25 | 0.0 | 0.0 | 0.00 | 0.00 | 0.00 | 96 | 1034.5 |
| 20260506080412 | 51 | 30 | 0.0 | 0.0 | 0.00 | 0.00 | 0.00 | 96 | 1034.6 |
| 20260506073356 | 53 | 357 | 0.0 | 1.7 | 0.00 | 0.00 | 0.00 | 93 | 1034.2 |
| 20260506072853 | 54 | 337 | 0.9 | 2.6 | 0.00 | 0.00 | 0.00 | 92 | 1034.0 |
| 20260506072351 | 55 | 323 | 0.9 | 1.7 | 0.00 | 0.00 | 0.00 | 91 | 1034.0 |
| 20260506071848 | 57 | 285 | 0.9 | 3.5 | 0.00 | 0.00 | 0.00 | 88 | 1034.0 |
| 20260506071347 | 58 | 119 | 2.6 | 6.1 | 0.00 | 0.00 | 0.00 | 85 | 1034.1 |
| 20260506070843 | 57 | 190 | 3.5 | 6.1 | 0.00 | 0.00 | 0.00 | 86 | 1034.0 |
| 20260506070340 | 57 | 159 | 0.0 | 1.7 | 0.00 | 0.00 | 0.00 | 87 | 1033.8 |
| 20260506062317 | 58 | 147 | 7.0 | 7.8 | 0.00 | 0.00 | 0.00 | 85 | 1033.7 |
| 20260506061813 | 58 | 206 | 3.5 | 8.7 | 0.00 | 0.00 | 0.00 | 85 | 1033.5 |
| 20260506061310 | 58 | 174 | 1.7 | 11.3 | 0.00 | 0.00 | 0.00 | 86 | 1033.5 |
| 20260506060808 | 58 | 209 | 7.0 | 8.7 | 0.00 | 0.00 | 0.00 | 87 | 1033.4 |
| 20260506060306 | 55 | 109 | 5.2 | 7.0 | 0.00 | 0.00 | 0.00 | 90 | 1033.7 |
| 20260506051237 | 53 | 30 | 0.0 | 0.9 | 0.00 | 0.00 | 0.00 | 94 | 1033.4 |
| 20260506050735 | 54 | 30 | 0.0 | 0.0 | 0.00 | 0.00 | 0.00 | 94 | 1033.4 |
| 20260506050232 | 54 | 30 | 0.0 | 0.0 | 0.00 | 0.00 | 0.00 | 93 | 1033.3 |
| 20260506044723 | 55 | 30 | 0.0 | 0.0 | 0.00 | 0.00 | 0.00 | 92 | 1033.2 |
| 20260506044221 | 55 | 30 | 0.0 | 0.0 | 0.00 | 0.00 | 0.00 | 92 | 1033.3 |
| 20260506043718 | 56 | 30 | 0.0 | 0.0 | 0.00 | 0.00 | 0.00 | 91 | 1033.1 |
| 20260506043216 | 56 | 30 | 0.0 | 0.0 | 0.00 | 0.00 | 0.00 | 91 | 1033.0 |
| 20260506042714 | 56 | 31 | 0.0 | 0.0 | 0.00 | 0.00 | 0.00 | 90 | 1033.1 |
| 20260506042212 | 57 | 31 | 0.9 | 0.9 | 0.00 | 0.00 | 0.00 | 89 | 1032.9 |
| 20260506041710 | 57 | 35 | 0.9 | 1.7 | 0.00 | 0.00 | 0.00 | 89 | 1033.0 |
| 20260506041207 | 57 | 33 | 0.9 | 1.7 | 0.00 | 0.00 | 0.00 | 87 | 1032.8 |
| 20260506040704 | 57 | 34 | 0.0 | 0.0 | 0.00 | 0.00 | 0.00 | 87 | 1032.8 |
| 20260506040201 | 58 | 34 | 0.0 | 0.0 | 0.00 | 0.00 | 0.00 | 87 | 1032.9 |
| 20260506035658 | 58 | 34 | 0.0 | 0.0 | 0.00 | 0.00 | 0.00 | 86 | 1032.6 |
| 20260506035155 | 59 | 51 | 0.9 | 1.7 | 0.00 | 0.00 | 0.00 | 85 | 1032.5 |
| 20260506034651 | 59 | 84 | 0.0 | 1.7 | 0.00 | 0.00 | 0.00 | 86 | 1032.6 |
| 20260506034149 | 59 | 20 | 0.0 | 0.9 | 0.00 | 0.00 | 0.00 | 85 | 1032.4 |
| 20260506033646 | 59 | 14 | 0.0 | 1.7 | 0.00 | 0.00 | 0.00 | 83 | 1032.4 |
| 20260506033143 | 59 | 89 | 0.9 | 1.7 | 0.00 | 0.00 | 0.00 | 83 | 1032.5 |
| 20260506032640 | 60 | 341 | 0.0 | 1.7 | 0.00 | 0.00 | 0.00 | 83 | 1032.3 |
| 20260506032137 | 60 | 21 | 0.9 | 1.7 | 0.00 | 0.00 | 0.00 | 83 | 1032.2 |
| 20260506031634 | 60 | 24 | 0.0 | 0.0 | 0.00 | 0.00 | 0.00 | 82 | 1032.2 |
| 20260506031131 | 61 | 24 | 0.0 | 0.9 | 0.00 | 0.00 | 0.00 | 81 | 1032.3 |
| 20260506030630 | 61 | 50 | 1.7 | 2.6 | 0.00 | 0.00 | 0.00 | 81 | 1032.1 |
| 20260506030126 | 61 | 358 | 2.6 | 2.6 | 0.00 | 0.00 | 0.00 | 81 | 1032.3 |
| 20260506025623 | 62 | 9 | 0.9 | 2.6 | 0.00 | 0.00 | 0.00 | 81 | 1032.0 |
| 20260506025119 | 62 | 13 | 1.7 | 3.5 | 0.00 | 0.00 | 0.00 | 80 | 1032.1 |
| 20260506024617 | 62 | 357 | 1.7 | 2.6 | 0.00 | 0.00 | 0.00 | 80 | 1032.2 |
| 20260506024112 | 62 | 28 | 1.7 | 2.6 | 0.00 | 0.00 | 0.00 | 80 | 1032.0 |
| 20260506023609 | 63 | 16 | 1.7 | 2.6 | 0.00 | 0.00 | 0.00 | 79 | 1032.0 |
| 20260506023106 | 63 | 25 | 1.7 | 2.6 | 0.00 | 0.00 | 0.00 | 79 | 1032.0 |
| 20260506022604 | 63 | 5 | 2.6 | 3.5 | 0.00 | 0.00 | 0.00 | 79 | 1032.0 |
| 20260506022101 | 63 | 6 | 2.6 | 5.2 | 0.00 | 0.00 | 0.00 | 78 | 1032.1 |
| 20260506021559 | 64 | 15 | 1.7 | 3.5 | 0.00 | 0.00 | 0.00 | 78 | 1032.0 |
| 20260506021055 | 64 | 2 | 4.3 | 6.1 | 0.00 | 0.00 | 0.00 | 77 | 1032.0 |
| 20260506020553 | 64 | 51 | 3.5 | 5.2 | 0.00 | 0.00 | 0.00 | 76 | 1032.0 |
| 20260506020050 | 64 | 342 | 2.6 | 7.0 | 0.00 | 0.00 | 0.00 | 76 | 1031.9 |
| 20260506015548 | 65 | 7 | 4.3 | 8.7 | 0.00 | 0.00 | 0.00 | 76 | 1032.0 |
| 20260506015044 | 65 | 354 | 4.3 | 6.1 | 0.00 | 0.00 | 0.00 | 75 | 1032.1 |
| 20260506014542 | 66 | 349 | 2.6 | 5.2 | 0.00 | 0.00 | 0.00 | 74 | 1031.9 |
| 20260506014037 | 66 | 15 | 3.5 | 7.8 | 0.00 | 0.00 | 0.00 | 74 | 1031.9 |
| 20260506013536 | 66 | 11 | 2.6 | 5.2 | 0.00 | 0.00 | 0.00 | 74 | 1032.0 |
| 20260506013032 | 66 | 6 | 5.2 | 7.0 | 0.00 | 0.00 | 0.00 | 74 | 1031.7 |
| 20260506012528 | 66 | 7 | 3.5 | 5.2 | 0.00 | 0.00 | 0.00 | 73 | 1031.9 |
| 20260506012025 | 67 | 2 | 3.5 | 3.5 | 0.00 | 0.00 | 0.00 | 73 | 1031.8 |
| 20260506011523 | 66 | 3 | 1.7 | 2.6 | 0.00 | 0.00 | 0.00 | 73 | 1031.7 |
| 20260506011019 | 66 | 25 | 2.6 | 3.5 | 0.00 | 0.00 | 0.00 | 73 | 1031.8 |
| 20260506010514 | 66 | 353 | 3.5 | 5.2 | 0.00 | 0.00 | 0.00 | 73 | 1031.8 |
| 20260506010010 | 67 | 359 | 3.5 | 3.5 | 0.00 | 0.00 | 0.00 | 73 | 1031.9 |
| 20260506005507 | 66 | 355 | 2.6 | 6.1 | 0.00 | 0.00 | 0.00 | 73 | 1031.8 |
| 20260506005002 | 67 | 13 | 5.2 | 6.1 | 0.00 | 0.00 | 0.00 | 73 | 1031.9 |
| 20260506004500 | 67 | 15 | 3.5 | 5.2 | 0.00 | 0.00 | 0.00 | 72 | 1031.8 |
| 20260506003956 | 67 | 17 | 2.6 | 7.0 | 0.00 | 0.00 | 0.00 | 72 | 1031.8 |
| 20260506003453 | 67 | 20 | 3.5 | 8.7 | 0.00 | 0.00 | 0.00 | 72 | 1031.9 |
| 20260506002949 | 68 | 348 | 4.3 | 7.0 | 0.00 | 0.00 | 0.00 | 71 | 1031.9 |
| 20260506002445 | 68 | 42 | 1.7 | 7.0 | 0.00 | 0.00 | 0.00 | 71 | 1031.9 |
| 20260506001941 | 68 | 348 | 4.3 | 7.8 | 0.00 | 0.00 | 0.00 | 71 | 1032.1 |
| 20260506001438 | 68 | 347 | 2.6 | 7.0 | 0.00 | 0.00 | 0.00 | 71 | 1032.1 |
| 20260506000935 | 68 | 350 | 1.7 | 3.5 | 0.00 | 0.00 | 0.00 | 70 | 1032.1 |
| 20260506000433 | 69 | 354 | 5.2 | 7.8 | 0.00 | 0.00 | 0.00 | 69 | 1032.0 |
| 20260505235929 | 68 | 16 | 4.3 | 7.0 | 0.00 | 0.00 | 0.00 | 70 | 1032.0 |
| 20260505235428 | 70 | 0 | 6.1 | 7.0 | 0.00 | 0.00 | 0.00 | 68 | 1032.0 |
| 20260505234924 | 69 | 29 | 1.7 | 5.2 | 0.00 | 0.00 | 0.00 | 68 | 1032.1 |
| 20260505234422 | 69 | 10 | 2.6 | 6.1 | 0.00 | 0.00 | 0.00 | 69 | 1032.1 |
| 20260505233918 | 70 | 9 | 3.5 | 7.0 | 0.00 | 0.00 | 0.00 | 68 | 1032.2 |
| 20260505233416 | 71 | 350 | 4.3 | 6.1 | 0.00 | 0.00 | 0.00 | 67 | 1032.0 |
| 20260505232913 | 70 | 0 | 2.6 | 7.8 | 0.00 | 0.00 | 0.00 | 68 | 1032.2 |
| 20260505232411 | 70 | 68 | 2.6 | 7.8 | 0.00 | 0.00 | 0.00 | 68 | 1032.3 |
| 20260505231907 | 71 | 0 | 3.5 | 6.1 | 0.00 | 0.00 | 0.00 | 67 | 1032.4 |
| 20260505231405 | 70 | 355 | 4.3 | 6.1 | 0.00 | 0.00 | 0.00 | 66 | 1032.4 |
| 20260505230903 | 70 | 358 | 5.2 | 11.3 | 0.00 | 0.00 | 0.00 | 68 | 1032.4 |
| 20260505230401 | 69 | 356 | 2.6 | 6.1 | 0.00 | 0.00 | 0.00 | 67 | 1032.4 |
| 20260505225857 | 70 | 354 | 6.1 | 7.0 | 0.00 | 0.00 | 0.00 | 67 | 1032.5 |
| 20260505225354 | 70 | 27 | 5.2 | 8.7 | 0.00 | 0.00 | 0.00 | 66 | 1032.4 |
| 20260505224849 | 71 | 20 | 2.6 | 8.7 | 0.00 | 0.00 | 0.00 | 65 | 1032.5 |
| 20260505224347 | 71 | 4 | 1.7 | 7.0 | 0.00 | 0.00 | 0.00 | 64 | 1032.5 |
| 20260505223844 | 71 | 356 | 3.5 | 7.0 | 0.00 | 0.00 | 0.00 | 66 | 1032.4 |
| 20260505223341 | 71 | 54 | 1.7 | 3.5 | 0.00 | 0.00 | 0.00 | 64 | 1032.6 |
| 20260505222836 | 70 | 29 | 5.2 | 7.0 | 0.00 | 0.00 | 0.00 | 65 | 1032.6 |
| 20260505222333 | 71 | 18 | 2.6 | 7.8 | 0.00 | 0.00 | 0.00 | 66 | 1032.7 |
| 20260505221830 | 70 | 10 | 1.7 | 8.7 | 0.00 | 0.00 | 0.00 | 68 | 1032.6 |
| 20260505221327 | 70 | 354 | 7.8 | 11.3 | 0.00 | 0.00 | 0.00 | 66 | 1032.7 |
| 20260505220824 | 69 | 359 | 6.1 | 11.3 | 0.00 | 0.00 | 0.00 | 67 | 1032.9 |
| 20260505220321 | 70 | 356 | 7.8 | 12.2 | 0.00 | 0.00 | 0.00 | 66 | 1032.8 |
| 20260505215819 | 70 | 350 | 7.0 | 11.3 | 0.00 | 0.00 | 0.00 | 66 | 1032.9 |
| 20260505215317 | 70 | 9 | 5.2 | 7.0 | 0.00 | 0.00 | 0.00 | 67 | 1032.6 |
| 20260505214814 | 69 | 16 | 5.2 | 8.7 | 0.00 | 0.00 | 0.00 | 67 | 1033.0 |
| 20260505214312 | 69 | 25 | 7.8 | 8.7 | 0.00 | 0.00 | 0.00 | 68 | 1033.0 |
| 20260505213808 | 70 | 359 | 5.2 | 9.6 | 0.00 | 0.00 | 0.00 | 68 | 1032.9 |
| 20260505213307 | 71 | 28 | 4.3 | 8.7 | 0.00 | 0.00 | 0.00 | 68 | 1032.8 |
| 20260505212802 | 70 | 65 | 5.2 | 7.0 | 0.00 | 0.00 | 0.00 | 67 | 1032.8 |
| 20260505212259 | 69 | 8 | 4.3 | 7.8 | 0.00 | 0.00 | 0.00 | 68 | 1032.7 |
| 20260505211755 | 70 | 344 | 2.6 | 3.5 | 0.00 | 0.00 | 0.00 | 66 | 1032.7 |
| 20260505211254 | 69 | 349 | 4.3 | 7.8 | 0.00 | 0.00 | 0.00 | 67 | 1033.0 |
| 20260505210749 | 70 | 9 | 7.0 | 8.7 | 0.00 | 0.00 | 0.00 | 68 | 1032.8 |
| 20260505210247 | 69 | 4 | 5.2 | 7.0 | 0.00 | 0.00 | 0.00 | 68 | 1032.9 |
| 20260505205744 | 69 | 358 | 4.3 | 6.1 | 0.00 | 0.00 | 0.00 | 68 | 1033.1 |
| 20260505205242 | 69 | 35 | 2.6 | 7.0 | 0.00 | 0.00 | 0.00 | 69 | 1032.9 |
| 20260505204738 | 70 | 333 | 5.2 | 6.1 | 0.00 | 0.00 | 0.00 | 68 | 1033.0 |
| 20260505204236 | 69 | 21 | 4.3 | 7.0 | 0.00 | 0.00 | 0.00 | 69 | 1032.9 |
| 20260505203733 | 68 | 17 | 0.0 | 3.5 | 0.00 | 0.00 | 0.00 | 72 | 1033.1 |
| 20260505203230 | 68 | 345 | 4.3 | 11.3 | 0.00 | 0.00 | 0.00 | 69 | 1033.1 |
| 20260505202726 | 67 | 27 | 3.5 | 6.1 | 0.00 | 0.00 | 0.00 | 73 | 1033.0 |
| 20260505202222 | 68 | 13 | 7.0 | 8.7 | 0.00 | 0.00 | 0.00 | 70 | 1033.2 |
| 20260505201718 | 68 | 11 | 2.6 | 12.2 | 0.00 | 0.00 | 0.00 | 71 | 1033.1 |
| 20260505201216 | 68 | 4 | 4.3 | 8.7 | 0.00 | 0.00 | 0.00 | 70 | 1033.2 |
| 20260505200714 | 68 | 3 | 6.1 | 7.0 | 0.00 | 0.00 | 0.00 | 71 | 1033.3 |
| 20260505200211 | 67 | 11 | 7.0 | 9.6 | 0.00 | 0.00 | 0.00 | 71 | 1033.2 |
| 20260505195707 | 68 | 49 | 2.6 | 7.8 | 0.00 | 0.00 | 0.00 | 71 | 1033.1 |
| 20260505195204 | 68 | 358 | 3.5 | 6.1 | 0.00 | 0.00 | 0.00 | 70 | 1033.2 |
| 20260505194702 | 67 | 15 | 3.5 | 6.1 | 0.00 | 0.00 | 0.00 | 71 | 1033.0 |
| 20260505194157 | 68 | 322 | 5.2 | 9.6 | 0.00 | 0.00 | 0.00 | 71 | 1033.4 |
| 20260505193654 | 67 | 352 | 5.2 | 11.3 | 0.00 | 0.00 | 0.00 | 71 | 1033.0 |
| 20260505193151 | 69 | 358 | 6.1 | 7.8 | 0.00 | 0.00 | 0.00 | 69 | 1033.2 |
| 20260505192650 | 68 | 24 | 4.3 | 7.0 | 0.00 | 0.00 | 0.00 | 69 | 1033.1 |
| 20260505192147 | 67 | 21 | 6.1 | 8.7 | 0.00 | 0.00 | 0.00 | 71 | 1033.2 |
| 20260505191645 | 66 | 0 | 4.3 | 9.6 | 0.00 | 0.00 | 0.00 | 73 | 1032.9 |
| 20260505191143 | 66 | 3 | 7.0 | 8.7 | 0.00 | 0.00 | 0.00 | 73 | 1033.0 |
| 20260505190639 | 66 | 8 | 1.7 | 8.7 | 0.00 | 0.00 | 0.00 | 73 | 1033.3 |
| 20260505190138 | 67 | 340 | 5.2 | 7.8 | 0.00 | 0.00 | 0.00 | 71 | 1033.2 |
| 20260505185635 | 67 | 5 | 6.1 | 11.3 | 0.00 | 0.00 | 0.00 | 71 | 1033.1 |
| 20260505185132 | 67 | 26 | 6.1 | 8.7 | 0.00 | 0.00 | 0.00 | 71 | 1033.1 |
| 20260505184628 | 66 | 359 | 3.5 | 7.8 | 0.00 | 0.00 | 0.00 | 73 | 1033.1 |
| 20260505184125 | 67 | 343 | 6.1 | 8.7 | 0.00 | 0.00 | 0.00 | 71 | 1033.3 |
| 20260505183622 | 67 | 337 | 4.3 | 8.7 | 0.00 | 0.00 | 0.00 | 74 | 1033.2 |
| 20260505183120 | 67 | 316 | 5.2 | 8.7 | 0.00 | 0.00 | 0.00 | 71 | 1033.2 |
| 20260505182616 | 66 | 338 | 3.5 | 7.0 | 0.00 | 0.00 | 0.00 | 69 | 1033.2 |
| 20260505182113 | 66 | 28 | 1.7 | 8.7 | 0.00 | 0.00 | 0.00 | 71 | 1033.1 |
| 20260505181609 | 66 | 350 | 3.5 | 5.2 | 0.00 | 0.00 | 0.00 | 70 | 1033.1 |
| 20260505181107 | 66 | 9 | 6.1 | 7.0 | 0.00 | 0.00 | 0.00 | 68 | 1033.1 |
| 20260505180603 | 65 | 35 | 1.7 | 3.5 | 0.00 | 0.00 | 0.00 | 69 | 1033.2 |
| 20260505180101 | 66 | 348 | 4.3 | 7.8 | 0.00 | 0.00 | 0.00 | 69 | 1033.1 |
| 20260505175556 | 65 | 26 | 4.3 | 7.0 | 0.00 | 0.00 | 0.00 | 69 | 1033.0 |
| 20260505175053 | 66 | 47 | 1.7 | 5.2 | 0.00 | 0.00 | 0.00 | 68 | 1033.3 |
| 20260505174550 | 66 | 50 | 5.2 | 7.8 | 0.00 | 0.00 | 0.00 | 67 | 1033.0 |
| 20260505174045 | 65 | 340 | 1.7 | 3.5 | 0.00 | 0.00 | 0.00 | 69 | 1033.1 |
| 20260505173542 | 65 | 28 | 1.7 | 3.5 | 0.00 | 0.00 | 0.00 | 68 | 1033.3 |
| 20260505173039 | 65 | 344 | 6.1 | 7.0 | 0.00 | 0.00 | 0.00 | 68 | 1033.2 |
| 20260505172537 | 65 | 359 | 5.2 | 7.0 | 0.00 | 0.00 | 0.00 | 67 | 1033.1 |
| 20260505172033 | 64 | 1 | 2.6 | 5.2 | 0.00 | 0.00 | 0.00 | 66 | 1033.3 |
| 20260505171528 | 64 | 7 | 2.6 | 3.5 | 0.00 | 0.00 | 0.00 | 66 | 1033.0 |
| 20260505171025 | 65 | 349 | 3.5 | 6.1 | 0.00 | 0.00 | 0.00 | 65 | 1033.1 |
| 20260505170522 | 66 | 26 | 2.6 | 5.2 | 0.00 | 0.00 | 0.00 | 64 | 1033.1 |
| 20260505170018 | 65 | 77 | 0.0 | 2.6 | 0.00 | 0.00 | 0.00 | 66 | 1033.1 |
| 20260505165514 | 66 | 96 | 0.0 | 1.7 | 0.00 | 0.00 | 0.00 | 66 | 1033.1 |